Historyczne dane pomiarowe

Dodano dane terminowe – wersja testowa.

Dane z okresu 1951-2019

Wersja bazy: 1.34 [2019-03-16, lista zmian], aktualizacja planowana na 2019-04-15

Dane meteo z obszaru Polski uzyskane na podstawie danych udostępnionych przez Instytut Meteorologii i Gospodarki Wodnej – Państwowy Instytut Badawczy.

 

Wybierz Datę:    

       

TemperaturaWilgotnośćZachmurzenieWiatrCiśnienieWidzialnośćZjawiska
 Data    tng td wb rh cc ccl cl cm ch dir g1 g2 mslp ppp      
1973-05-05 00:00:00 10.2--- 6.2 8.076wxwxwxwx10wx--- 841.3 0.0---wxw1
1973-05-05 01:00:00 10.4------wxwxwx10wx--- 841.1----wx
1973-05-05 02:00:00 10.8------wxwxwxwx11wx--- 841.0----wx
1973-05-05 03:00:00 10.6--- 7.1 8.679wxwxwxwx12wx--- 840.7----wx
1973-05-05 04:00:00 10.1------wxwxwx13wx--- 840.9----wx
1973-05-05 05:00:00 10.8------wxwxwxwx12wx--- 841.5----wx
1973-05-05 06:00:00 10.6--- 5.9 8.072wxwxwxwx10wx--- 841.2 0.0---wx
1973-05-05 07:00:00 11.0------wxwxwxwx13wx--- 841.1----wx
1973-05-05 08:00:00 11.4------wxwxwx11wx--- 841.3----wx
1973-05-05 09:00:00 12.4--- 4.1 8.057wxwxwx11wx--- 841.0----wx
1973-05-05 10:00:00 13.0------wxwxwxwx15wx--- 840.1----wx
1973-05-05 11:00:00 12.6------wxwxwxwxwx21wx--- 839.8----wx
1973-05-05 12:00:00 13.4--- 7.1 9.866wxwxwxwx19wx--- 839.9 0.0---wx
1973-05-05 13:00:00 13.4------wxwxwxwx18wx--- 839.8----wx
1973-05-05 14:00:00 12.6------wxwxwxwx18wx--- 839.7----wx
1973-05-05 15:00:00 12.1--- 7.4 9.472wxwxwx17wx--- 839.3----wx
1973-05-05 16:00:00 12.0------wxwxwx16wx--- 839.2----wx
1973-05-05 17:00:00 11.8------wxwxwx18wx--- 838.8----wx
1973-05-05 18:00:00 11.6--- 9.7 10.487wxwxwx16wx--- 838.7 0.0---wx
1973-05-05 19:00:00 11.4------wxwxwx17wx--- 838.7----wx
1973-05-05 20:00:00 10.8------wxwxwxwx16wx--- 838.7----wx
1973-05-05 21:00:00 10.6--- 10.6 10.6100wxwxwx13wx--- 838.7----wx
1973-05-05 22:00:00 12.0------wxwxwx11wx--- 838.6----wx
1973-05-05 23:00:00 11.4------wxwxwx10wx--- 838.8----wx

 

Źródłem pochodzenia danych jest Instytut Meteorologii i Gospodarki Wodnej – Państwowy Instytut Badawczy. Dane Instytutu Meteorologii i Gospodarki Wodnej – Państwowego Instytutu Badawczego zostały przetworzone.

Dane źródłowe można odnaleźć na stronie https://dane.imgw.pl